sensor_id;sensor_type;location;lat;lon;timestamp;pressure;altitude;pressure_sealevel;temperature;humidity
58064;BME280;43851;55.856;37.186;2022-09-19T00:01:19;96764.22;;;13.89;100.00
58064;BME280;43851;55.856;37.186;2022-09-19T00:03:50;96758.69;;;14.05;100.00
58064;BME280;43851;55.856;37.186;2022-09-19T00:06:16;96762.22;;;14.00;100.00
58064;BME280;43851;55.856;37.186;2022-09-19T00:08:44;96748.97;;;13.95;100.00
58064;BME280;43851;55.856;37.186;2022-09-19T00:11:13;96755.03;;;14.01;100.00
58064;BME280;43851;55.856;37.186;2022-09-19T00:13:40;96739.81;;;14.01;100.00
58064;BME280;43851;55.856;37.186;2022-09-19T00:16:11;96734.69;;;14.05;100.00
58064;BME280;43851;55.856;37.186;2022-09-19T00:18:37;96743.50;;;14.05;100.00
58064;BME280;43851;55.856;37.186;2022-09-19T00:21:02;96749.41;;;14.02;100.00
58064;BME280;43851;55.856;37.186;2022-09-19T00:23:28;96753.28;;;14.10;100.00
58064;BME280;43851;55.856;37.186;2022-09-19T00:26:13;96735.22;;;14.07;100.00
58064;BME280;43851;55.856;37.186;2022-09-19T00:28:44;96724.28;;;14.08;100.00
58064;BME280;43851;55.856;37.186;2022-09-19T00:31:15;96724.91;;;14.00;100.00
58064;BME280;43851;55.856;37.186;2022-09-19T00:33:43;96726.13;;;14.08;100.00
58064;BME280;43851;55.856;37.186;2022-09-19T00:36:10;96742.84;;;14.14;100.00
58064;BME280;43851;55.856;37.186;2022-09-19T00:38:37;96733.25;;;14.13;100.00
58064;BME280;43851;55.856;37.186;2022-09-19T00:41:03;96714.59;;;14.13;100.00
58064;BME280;43851;55.856;37.186;2022-09-19T00:46:12;96708.59;;;14.21;100.00
58064;BME280;43851;55.856;37.186;2022-09-19T00:48:38;96703.84;;;14.18;100.00
58064;BME280;43851;55.856;37.186;2022-09-19T00:51:14;96707.34;;;14.18;100.00
58064;BME280;43851;55.856;37.186;2022-09-19T00:53:44;96700.03;;;14.24;100.00
58064;BME280;43851;55.856;37.186;2022-09-19T00:56:11;96682.84;;;14.16;100.00
58064;BME280;43851;55.856;37.186;2022-09-19T00:58:40;96690.34;;;14.14;100.00
58064;BME280;43851;55.856;37.186;2022-09-19T01:01:09;96689.56;;;14.14;100.00
58064;BME280;43851;55.856;37.186;2022-09-19T01:03:35;96694.59;;;14.15;100.00
58064;BME280;43851;55.856;37.186;2022-09-19T01:13:49;96679.28;;;14.21;100.00
58064;BME280;43851;55.856;37.186;2022-09-19T01:16:30;96682.19;;;14.24;100.00
58064;BME280;43851;55.856;37.186;2022-09-19T01:24:59;96689.78;;;14.31;100.00
58064;BME280;43851;55.856;37.186;2022-09-19T01:30:38;96667.75;;;14.25;100.00
58064;BME280;43851;55.856;37.186;2022-09-19T01:33:13;96685.75;;;14.34;100.00
58064;BME280;43851;55.856;37.186;2022-09-19T01:35:52;96672.22;;;14.30;100.00
58064;BME280;43851;55.856;37.186;2022-09-19T01:38:23;96673.03;;;14.31;100.00
58064;BME280;43851;55.856;37.186;2022-09-19T01:40:52;96675.59;;;14.36;100.00
58064;BME280;43851;55.856;37.186;2022-09-19T01:43:19;96652.97;;;14.33;100.00
58064;BME280;43851;55.856;37.186;2022-09-19T01:45:47;96672.34;;;14.39;100.00
58064;BME280;43851;55.856;37.186;2022-09-19T01:48:26;96669.97;;;14.37;100.00
58064;BME280;43851;55.856;37.186;2022-09-19T01:57:08;96660.97;;;14.33;100.00
58064;BME280;43851;55.856;37.186;2022-09-19T01:59:45;96661.56;;;14.30;100.00
58064;BME280;43851;55.856;37.186;2022-09-19T02:07:36;96637.25;;;14.18;100.00
58064;BME280;43851;55.856;37.186;2022-09-19T02:10:14;96643.50;;;14.13;100.00
58064;BME280;43851;55.856;37.186;2022-09-19T02:12:43;96636.38;;;14.08;100.00
58064;BME280;43851;55.856;37.186;2022-09-19T02:15:25;96642.59;;;14.18;100.00
58064;BME280;43851;55.856;37.186;2022-09-19T02:18:32;96642.00;;;14.21;100.00
58064;BME280;43851;55.856;37.186;2022-09-19T02:21:06;96639.56;;;14.24;100.00
58064;BME280;43851;55.856;37.186;2022-09-19T02:23:38;96624.63;;;14.10;100.00
58064;BME280;43851;55.856;37.186;2022-09-19T02:26:14;96636.47;;;14.17;100.00
58064;BME280;43851;55.856;37.186;2022-09-19T02:28:50;96633.13;;;14.12;100.00
58064;BME280;43851;55.856;37.186;2022-09-19T02:31:22;96629.75;;;14.06;100.00
58064;BME280;43851;55.856;37.186;2022-09-19T02:33:58;96618.97;;;13.97;100.00
58064;BME280;43851;55.856;37.186;2022-09-19T02:36:30;96622.19;;;14.13;100.00
58064;BME280;43851;55.856;37.186;2022-09-19T02:39:19;96619.09;;;14.06;100.00
58064;BME280;43851;55.856;37.186;2022-09-19T02:42:44;96614.44;;;13.98;100.00
58064;BME280;43851;55.856;37.186;2022-09-19T02:47:58;96612.09;;;14.10;100.00
58064;BME280;43851;55.856;37.186;2022-09-19T02:50:57;96611.38;;;14.04;100.00
58064;BME280;43851;55.856;37.186;2022-09-19T02:53:32;96602.81;;;14.07;100.00
58064;BME280;43851;55.856;37.186;2022-09-19T02:56:03;96590.50;;;14.12;100.00
58064;BME280;43851;55.856;37.186;2022-09-19T02:58:45;96596.50;;;14.17;100.00
58064;BME280;43851;55.856;37.186;2022-09-19T03:01:19;96592.25;;;14.16;100.00
58064;BME280;43851;55.856;37.186;2022-09-19T03:03:55;96582.22;;;14.13;100.00
58064;BME280;43851;55.856;37.186;2022-09-19T03:06:54;96592.06;;;14.13;100.00
58064;BME280;43851;55.856;37.186;2022-09-19T03:09:25;96591.53;;;13.97;100.00
58064;BME280;43851;55.856;37.186;2022-09-19T03:11:57;96587.88;;;13.93;100.00
58064;BME280;43851;55.856;37.186;2022-09-19T03:14:25;96600.84;;;13.99;100.00
58064;BME280;43851;55.856;37.186;2022-09-19T03:16:53;96597.28;;;14.04;100.00
58064;BME280;43851;55.856;37.186;2022-09-19T03:19:23;96589.59;;;14.02;100.00
58064;BME280;43851;55.856;37.186;2022-09-19T03:21:54;96584.28;;;14.02;100.00
58064;BME280;43851;55.856;37.186;2022-09-19T03:24:23;96582.69;;;14.01;100.00
58064;BME280;43851;55.856;37.186;2022-09-19T03:26:49;96579.31;;;13.96;100.00
58064;BME280;43851;55.856;37.186;2022-09-19T03:29:15;96580.13;;;13.96;100.00
58064;BME280;43851;55.856;37.186;2022-09-19T03:31:51;96578.31;;;13.92;100.00
58064;BME280;43851;55.856;37.186;2022-09-19T03:34:20;96590.19;;;13.99;100.00
58064;BME280;43851;55.856;37.186;2022-09-19T03:36:48;96570.81;;;13.94;100.00
58064;BME280;43851;55.856;37.186;2022-09-19T03:39:20;96583.47;;;14.02;100.00
58064;BME280;43851;55.856;37.186;2022-09-19T03:41:48;96580.31;;;14.00;100.00
58064;BME280;43851;55.856;37.186;2022-09-19T03:44:16;96566.38;;;13.89;100.00
58064;BME280;43851;55.856;37.186;2022-09-19T03:46:46;96569.53;;;13.91;100.00
58064;BME280;43851;55.856;37.186;2022-09-19T03:49:15;96569.81;;;13.89;100.00
58064;BME280;43851;55.856;37.186;2022-09-19T03:51:42;96555.34;;;13.82;100.00
58064;BME280;43851;55.856;37.186;2022-09-19T03:54:13;96556.22;;;13.91;100.00
58064;BME280;43851;55.856;37.186;2022-09-19T03:56:42;96557.81;;;13.92;100.00
58064;BME280;43851;55.856;37.186;2022-09-19T03:59:09;96566.47;;;13.84;100.00
58064;BME280;43851;55.856;37.186;2022-09-19T04:01:39;96560.75;;;13.90;100.00
58064;BME280;43851;55.856;37.186;2022-09-19T04:04:04;96560.84;;;13.85;100.00
58064;BME280;43851;55.856;37.186;2022-09-19T04:06:34;96559.66;;;13.78;100.00
58064;BME280;43851;55.856;37.186;2022-09-19T04:09:02;96566.84;;;13.77;100.00
58064;BME280;43851;55.856;37.186;2022-09-19T04:11:29;96584.19;;;13.75;100.00
58064;BME280;43851;55.856;37.186;2022-09-19T04:13:55;96583.91;;;13.76;100.00
58064;BME280;43851;55.856;37.186;2022-09-19T04:16:22;96574.88;;;13.58;100.00
58064;BME280;43851;55.856;37.186;2022-09-19T04:18:50;96576.63;;;13.49;100.00
58064;BME280;43851;55.856;37.186;2022-09-19T04:21:53;96580.78;;;13.36;95.42
58064;BME280;43851;55.856;37.186;2022-09-19T04:24:33;96573.63;;;13.17;90.55
58064;BME280;43851;55.856;37.186;2022-09-19T04:27:22;96588.47;;;13.18;93.19
58064;BME280;43851;55.856;37.186;2022-09-19T04:29:49;96594.31;;;13.02;92.34
58064;BME280;43851;55.856;37.186;2022-09-19T04:32:15;96592.44;;;13.02;93.33
58064;BME280;43851;55.856;37.186;2022-09-19T04:34:42;96595.81;;;13.08;94.03
58064;BME280;43851;55.856;37.186;2022-09-19T04:37:09;96591.34;;;13.03;93.84
58064;BME280;43851;55.856;37.186;2022-09-19T04:39:35;96598.03;;;13.00;93.51
58064;BME280;43851;55.856;37.186;2022-09-19T04:42:01;96598.16;;;12.90;92.15
58064;BME280;43851;55.856;37.186;2022-09-19T04:44:29;96584.59;;;12.92;91.79
58064;BME280;43851;55.856;37.186;2022-09-19T04:47:05;96585.44;;;12.87;89.71
58064;BME280;43851;55.856;37.186;2022-09-19T04:49:32;96589.03;;;12.96;91.64
58064;BME280;43851;55.856;37.186;2022-09-19T04:52:07;96592.34;;;12.88;89.60
58064;BME280;43851;55.856;37.186;2022-09-19T04:54:34;96600.97;;;12.80;89.31
58064;BME280;43851;55.856;37.186;2022-09-19T04:57:03;96586.38;;;12.77;90.45
58064;BME280;43851;55.856;37.186;2022-09-19T04:59:32;96578.69;;;12.76;89.93
58064;BME280;43851;55.856;37.186;2022-09-19T05:02:01;96584.13;;;12.66;89.72
58064;BME280;43851;55.856;37.186;2022-09-19T05:04:29;96587.09;;;12.64;90.44
58064;BME280;43851;55.856;37.186;2022-09-19T05:06:55;96578.94;;;12.55;90.18
58064;BME280;43851;55.856;37.186;2022-09-19T05:09:21;96579.44;;;12.57;90.88
58064;BME280;43851;55.856;37.186;2022-09-19T05:12:08;96570.97;;;12.55;90.03
58064;BME280;43851;55.856;37.186;2022-09-19T05:14:39;96582.72;;;12.49;90.59
58064;BME280;43851;55.856;37.186;2022-09-19T05:17:06;96582.03;;;12.38;90.86
58064;BME280;43851;55.856;37.186;2022-09-19T05:19:34;96575.88;;;12.43;91.42
58064;BME280;43851;55.856;37.186;2022-09-19T05:22:04;96573.16;;;12.48;91.70
58064;BME280;43851;55.856;37.186;2022-09-19T05:24:30;96570.09;;;12.60;92.20
58064;BME280;43851;55.856;37.186;2022-09-19T05:26:57;96569.66;;;12.53;91.06
58064;BME280;43851;55.856;37.186;2022-09-19T05:29:25;96574.19;;;12.52;91.40
58064;BME280;43851;55.856;37.186;2022-09-19T05:31:57;96561.03;;;12.42;91.96
58064;BME280;43851;55.856;37.186;2022-09-19T05:34:45;96564.47;;;12.42;91.83
58064;BME280;43851;55.856;37.186;2022-09-19T05:37:43;96590.44;;;12.26;91.97
58064;BME280;43851;55.856;37.186;2022-09-19T05:40:32;96572.50;;;12.13;92.66
58064;BME280;43851;55.856;37.186;2022-09-19T05:43:18;96572.78;;;12.12;93.42
58064;BME280;43851;55.856;37.186;2022-09-19T05:45:45;96579.91;;;12.16;94.42
58064;BME280;43851;55.856;37.186;2022-09-19T05:48:13;96581.81;;;12.11;93.46
58064;BME280;43851;55.856;37.186;2022-09-19T05:50:43;96576.25;;;12.07;93.36
58064;BME280;43851;55.856;37.186;2022-09-19T05:53:10;96584.00;;;12.03;93.91
58064;BME280;43851;55.856;37.186;2022-09-19T05:56:07;96588.69;;;12.12;93.31
58064;BME280;43851;55.856;37.186;2022-09-19T05:58:45;96586.38;;;12.05;92.89
58064;BME280;43851;55.856;37.186;2022-09-19T06:01:13;96570.16;;;12.06;93.33
58064;BME280;43851;55.856;37.186;2022-09-19T06:03:49;96572.78;;;12.12;91.87
58064;BME280;43851;55.856;37.186;2022-09-19T06:06:27;96575.41;;;12.17;91.63
58064;BME280;43851;55.856;37.186;2022-09-19T06:08:55;96584.06;;;12.22;90.32
58064;BME280;43851;55.856;37.186;2022-09-19T06:11:27;96583.97;;;12.33;90.55
58064;BME280;43851;55.856;37.186;2022-09-19T06:13:53;96571.03;;;12.26;90.71
58064;BME280;43851;55.856;37.186;2022-09-19T06:16:38;96583.56;;;12.20;90.96
58064;BME280;43851;55.856;37.186;2022-09-19T06:19:29;96586.88;;;12.07;91.95
58064;BME280;43851;55.856;37.186;2022-09-19T06:22:26;96597.41;;;12.17;92.04
58064;BME280;43851;55.856;37.186;2022-09-19T06:24:54;96574.25;;;12.23;91.59
58064;BME280;43851;55.856;37.186;2022-09-19T06:27:21;96589.78;;;12.35;90.17
58064;BME280;43851;55.856;37.186;2022-09-19T06:29:47;96579.94;;;12.35;88.76
58064;BME280;43851;55.856;37.186;2022-09-19T06:32:32;96583.97;;;12.33;89.03
58064;BME280;43851;55.856;37.186;2022-09-19T06:35:28;96585.16;;;12.45;90.43
58064;BME280;43851;55.856;37.186;2022-09-19T06:38:05;96587.63;;;12.37;89.85
58064;BME280;43851;55.856;37.186;2022-09-19T06:40:32;96604.94;;;12.34;90.74
58064;BME280;43851;55.856;37.186;2022-09-19T06:43:21;96587.06;;;12.16;90.44
58064;BME280;43851;55.856;37.186;2022-09-19T06:46:11;96573.53;;;12.17;90.75
58064;BME280;43851;55.856;37.186;2022-09-19T06:49:07;96570.13;;;11.82;91.09
58064;BME280;43851;55.856;37.186;2022-09-19T06:51:55;96591.38;;;11.77;93.34
58064;BME280;43851;55.856;37.186;2022-09-19T06:54:23;96601.13;;;11.92;95.01
58064;BME280;43851;55.856;37.186;2022-09-19T06:56:49;96592.75;;;11.74;95.00
58064;BME280;43851;55.856;37.186;2022-09-19T06:59:16;96610.66;;;11.59;96.48
58064;BME280;43851;55.856;37.186;2022-09-19T07:01:45;96612.09;;;11.41;98.45
58064;BME280;43851;55.856;37.186;2022-09-19T07:04:12;96612.47;;;11.24;100.00
58064;BME280;43851;55.856;37.186;2022-09-19T07:06:54;96590.59;;;11.02;100.00
58064;BME280;43851;55.856;37.186;2022-09-19T07:09:25;96591.06;;;11.10;100.00
58064;BME280;43851;55.856;37.186;2022-09-19T07:11:54;96609.34;;;11.11;100.00
58064;BME280;43851;55.856;37.186;2022-09-19T07:14:23;96618.81;;;11.28;100.00
58064;BME280;43851;55.856;37.186;2022-09-19T07:16:50;96600.34;;;11.12;100.00
58064;BME280;43851;55.856;37.186;2022-09-19T07:19:16;96605.59;;;11.23;96.03
58064;BME280;43851;55.856;37.186;2022-09-19T07:21:42;96584.47;;;11.47;95.16
58064;BME280;43851;55.856;37.186;2022-09-19T07:24:14;96586.50;;;11.60;92.21
58064;BME280;43851;55.856;37.186;2022-09-19T07:27:10;96605.47;;;11.72;90.25
58064;BME280;43851;55.856;37.186;2022-09-19T07:29:37;96612.50;;;11.93;90.85
58064;BME280;43851;55.856;37.186;2022-09-19T07:32:03;96606.53;;;11.77;88.57
58064;BME280;43851;55.856;37.186;2022-09-19T07:34:31;96604.94;;;11.76;86.36
58064;BME280;43851;55.856;37.186;2022-09-19T07:36:58;96590.50;;;11.58;86.38
58064;BME280;43851;55.856;37.186;2022-09-19T07:39:26;96627.69;;;11.82;84.67
58064;BME280;43851;55.856;37.186;2022-09-19T07:42:09;96623.81;;;11.69;83.86
58064;BME280;43851;55.856;37.186;2022-09-19T07:44:46;96627.34;;;11.59;83.40
58064;BME280;43851;55.856;37.186;2022-09-19T07:47:44;96625.84;;;11.48;85.54
58064;BME280;43851;55.856;37.186;2022-09-19T07:50:30;96641.09;;;11.27;88.82
58064;BME280;43851;55.856;37.186;2022-09-19T07:53:07;96636.28;;;10.79;93.30
58064;BME280;43851;55.856;37.186;2022-09-19T07:55:34;96616.56;;;10.45;96.67
58064;BME280;43851;55.856;37.186;2022-09-19T07:58:02;96626.63;;;10.38;98.64
58064;BME280;43851;55.856;37.186;2022-09-19T08:00:52;96639.31;;;10.31;97.72
58064;BME280;43851;55.856;37.186;2022-09-19T08:03:47;96647.00;;;10.33;97.62
58064;BME280;43851;55.856;37.186;2022-09-19T08:06:17;96649.66;;;10.22;97.27
58064;BME280;43851;55.856;37.186;2022-09-19T08:08:44;96642.25;;;10.19;95.28
58064;BME280;43851;55.856;37.186;2022-09-19T08:11:28;96639.34;;;10.21;93.83
58064;BME280;43851;55.856;37.186;2022-09-19T08:13:54;96650.19;;;10.40;94.56
58064;BME280;43851;55.856;37.186;2022-09-19T08:16:22;96648.06;;;10.32;93.94
58064;BME280;43851;55.856;37.186;2022-09-19T08:18:48;96645.97;;;10.23;93.73
58064;BME280;43851;55.856;37.186;2022-09-19T08:21:15;96649.66;;;10.22;93.38
58064;BME280;43851;55.856;37.186;2022-09-19T08:23:45;96660.78;;;10.24;91.60
58064;BME280;43851;55.856;37.186;2022-09-19T08:26:11;96655.72;;;10.28;92.65
58064;BME280;43851;55.856;37.186;2022-09-19T08:28:37;96631.13;;;10.27;92.31
58064;BME280;43851;55.856;37.186;2022-09-19T08:31:05;96634.06;;;10.16;91.46
58064;BME280;43851;55.856;37.186;2022-09-19T08:33:37;96638.03;;;10.23;91.73
58064;BME280;43851;55.856;37.186;2022-09-19T08:36:05;96651.78;;;10.25;90.89
58064;BME280;43851;55.856;37.186;2022-09-19T08:38:32;96643.06;;;10.15;90.45
58064;BME280;43851;55.856;37.186;2022-09-19T08:44:05;96648.59;;;10.28;92.23
58064;BME280;43851;55.856;37.186;2022-09-19T08:49:35;96647.03;;;10.22;91.35
58064;BME280;43851;55.856;37.186;2022-09-19T08:52:52;96660.50;;;10.26;92.48
58064;BME280;43851;55.856;37.186;2022-09-19T08:54:58;96664.50;;;10.28;91.30
58064;BME280;43851;55.856;37.186;2022-09-19T08:57:36;96654.44;;;10.20;91.22
58064;BME280;43851;55.856;37.186;2022-09-19T09:00:19;96649.66;;;10.12;89.97
58064;BME280;43851;55.856;37.186;2022-09-19T09:03:00;96645.72;;;10.15;91.06
58064;BME280;43851;55.856;37.186;2022-09-19T09:14:21;96678.00;;;9.96;98.37
58064;BME280;43851;55.856;37.186;2022-09-19T09:26:22;96687.25;;;9.73;100.00
58064;BME280;43851;55.856;37.186;2022-09-19T09:29:26;96669.81;;;9.77;100.00
58064;BME280;43851;55.856;37.186;2022-09-19T09:32:29;96673.25;;;9.83;100.00
58064;BME280;43851;55.856;37.186;2022-09-19T09:35:10;96685.41;;;10.04;100.00
58064;BME280;43851;55.856;37.186;2022-09-19T09:40:11;96679.88;;;10.11;100.00
58064;BME280;43851;55.856;37.186;2022-09-19T09:42:56;96671.66;;;10.18;99.90
58064;BME280;43851;55.856;37.186;2022-09-19T09:45:44;96673.78;;;10.05;100.00
58064;BME280;43851;55.856;37.186;2022-09-19T09:48:26;96679.06;;;10.00;100.00
58064;BME280;43851;55.856;37.186;2022-09-19T09:58:00;96669.53;;;10.20;100.00
58064;BME280;43851;55.856;37.186;2022-09-19T10:00:29;96667.94;;;10.14;100.00
58064;BME280;43851;55.856;37.186;2022-09-19T10:06:25;96668.47;;;9.90;100.00
58064;BME280;43851;55.856;37.186;2022-09-19T10:11:39;96677.47;;;9.94;100.00
58064;BME280;43851;55.856;37.186;2022-09-19T10:14:15;96672.72;;;9.86;100.00
58064;BME280;43851;55.856;37.186;2022-09-19T10:16:46;96688.34;;;9.87;100.00
58064;BME280;43851;55.856;37.186;2022-09-19T10:19:38;96682.50;;;9.96;100.00
58064;BME280;43851;55.856;37.186;2022-09-19T10:22:09;96676.69;;;9.99;100.00
58064;BME280;43851;55.856;37.186;2022-09-19T10:24:51;96674.59;;;9.90;100.00
58064;BME280;43851;55.856;37.186;2022-09-19T10:30:16;96663.19;;;9.69;100.00
58064;BME280;43851;55.856;37.186;2022-09-19T10:32:48;96679.31;;;9.68;100.00
58064;BME280;43851;55.856;37.186;2022-09-19T10:35:52;96680.66;;;9.75;100.00
58064;BME280;43851;55.856;37.186;2022-09-19T10:38:21;96679.56;;;9.66;100.00
58064;BME280;43851;55.856;37.186;2022-09-19T10:40:54;96678.53;;;9.67;100.00
58064;BME280;43851;55.856;37.186;2022-09-19T10:43:31;96672.69;;;9.55;100.00
58064;BME280;43851;55.856;37.186;2022-09-19T10:46:01;96672.47;;;9.67;100.00
58064;BME280;43851;55.856;37.186;2022-09-19T10:48:34;96674.56;;;9.65;100.00
58064;BME280;43851;55.856;37.186;2022-09-19T10:51:05;96678.25;;;9.69;100.00
58064;BME280;43851;55.856;37.186;2022-09-19T10:53:36;96666.59;;;9.49;100.00
58064;BME280;43851;55.856;37.186;2022-09-19T10:56:06;96660.78;;;9.52;100.00
58064;BME280;43851;55.856;37.186;2022-09-19T10:58:37;96669.50;;;9.48;100.00
58064;BME280;43851;55.856;37.186;2022-09-19T11:01:24;96652.56;;;9.33;100.00
58064;BME280;43851;55.856;37.186;2022-09-19T11:03:59;96665.00;;;9.43;100.00
58064;BME280;43851;55.856;37.186;2022-09-19T11:06:25;96650.72;;;9.49;100.00
58064;BME280;43851;55.856;37.186;2022-09-19T11:08:54;96651.22;;;9.26;100.00
58064;BME280;43851;55.856;37.186;2022-09-19T11:11:46;96662.63;;;9.42;100.00
58064;BME280;43851;55.856;37.186;2022-09-19T11:14:39;96665.53;;;9.40;100.00
58064;BME280;43851;55.856;37.186;2022-09-19T11:23:31;96663.13;;;9.28;100.00
58064;BME280;43851;55.856;37.186;2022-09-19T11:26:26;96668.16;;;9.30;100.00
58064;BME280;43851;55.856;37.186;2022-09-19T11:29:32;96659.69;;;9.38;100.00
58064;BME280;43851;55.856;37.186;2022-09-19T11:45:54;96651.56;;;9.65;100.00
58064;BME280;43851;55.856;37.186;2022-09-19T12:05:21;96643.56;;;9.34;100.00
58064;BME280;43851;55.856;37.186;2022-09-19T12:08:09;96653.88;;;9.46;100.00
58064;BME280;43851;55.856;37.186;2022-09-19T12:10:43;96659.72;;;9.53;100.00
58064;BME280;43851;55.856;37.186;2022-09-19T12:15:48;96650.19;;;9.47;100.00
58064;BME280;43851;55.856;37.186;2022-09-19T12:18:19;96655.50;;;9.37;100.00
58064;BME280;43851;55.856;37.186;2022-09-19T12:20:51;96664.75;;;9.50;100.00
58064;BME280;43851;55.856;37.186;2022-09-19T12:23:27;96658.66;;;9.39;100.00
58064;BME280;43851;55.856;37.186;2022-09-19T12:26:25;96669.19;;;9.29;100.00
58064;BME280;43851;55.856;37.186;2022-09-19T12:29:04;96686.13;;;9.33;100.00
58064;BME280;43851;55.856;37.186;2022-09-19T12:31:35;96683.19;;;9.24;100.00
58064;BME280;43851;55.856;37.186;2022-09-19T12:34:09;96653.59;;;9.27;100.00
58064;BME280;43851;55.856;37.186;2022-09-19T12:36:43;96687.47;;;9.35;100.00
58064;BME280;43851;55.856;37.186;2022-09-19T12:39:17;96677.94;;;9.45;100.00
58064;BME280;43851;55.856;37.186;2022-09-19T12:42:00;96690.69;;;9.53;100.00
58064;BME280;43851;55.856;37.186;2022-09-19T12:50:29;96673.19;;;9.26;100.00
58064;BME280;43851;55.856;37.186;2022-09-19T12:55:45;96690.84;;;9.20;100.00
58064;BME280;43851;55.856;37.186;2022-09-19T12:58:24;96694.84;;;9.33;100.00
58064;BME280;43851;55.856;37.186;2022-09-19T13:03:56;96681.66;;;9.44;100.00
58064;BME280;43851;55.856;37.186;2022-09-19T13:06:33;96699.66;;;9.42;100.00
58064;BME280;43851;55.856;37.186;2022-09-19T13:09:32;96692.50;;;9.47;100.00
58064;BME280;43851;55.856;37.186;2022-09-19T13:12:10;96707.34;;;9.53;100.00
58064;BME280;43851;55.856;37.186;2022-09-19T13:14:54;96712.63;;;9.48;100.00
58064;BME280;43851;55.856;37.186;2022-09-19T13:17:23;96696.47;;;9.45;100.00
58064;BME280;43851;55.856;37.186;2022-09-19T13:20:17;96722.13;;;9.44;100.00
58064;BME280;43851;55.856;37.186;2022-09-19T13:23:03;96704.66;;;9.38;100.00
58064;BME280;43851;55.856;37.186;2022-09-19T13:25:50;96723.16;;;9.38;100.00
58064;BME280;43851;55.856;37.186;2022-09-19T13:30:49;96721.06;;;9.40;100.00
58064;BME280;43851;55.856;37.186;2022-09-19T13:34:08;96720.25;;;9.34;100.00
58064;BME280;43851;55.856;37.186;2022-09-19T13:38:56;96725.28;;;9.31;100.00
58064;BME280;43851;55.856;37.186;2022-09-19T13:41:38;96730.31;;;9.37;100.00
58064;BME280;43851;55.856;37.186;2022-09-19T13:46:48;96727.91;;;9.31;100.00
58064;BME280;43851;55.856;37.186;2022-09-19T13:52:08;96747.19;;;9.31;100.00
58064;BME280;43851;55.856;37.186;2022-09-19T13:54:57;96751.72;;;9.41;100.00
58064;BME280;43851;55.856;37.186;2022-09-19T13:57:30;96741.16;;;9.46;100.00
58064;BME280;43851;55.856;37.186;2022-09-19T14:00:06;96745.91;;;9.44;100.00
58064;BME280;43851;55.856;37.186;2022-09-19T14:02:42;96755.72;;;9.54;100.00
58064;BME280;43851;55.856;37.186;2022-09-19T14:07:56;96757.53;;;9.38;100.00
58064;BME280;43851;55.856;37.186;2022-09-19T14:10:46;96750.69;;;9.42;100.00
58064;BME280;43851;55.856;37.186;2022-09-19T14:18:42;96775.78;;;9.39;100.00
58064;BME280;43851;55.856;37.186;2022-09-19T14:27:19;96767.84;;;9.45;100.00
58064;BME280;43851;55.856;37.186;2022-09-19T14:30:03;96764.16;;;9.46;100.00
58064;BME280;43851;55.856;37.186;2022-09-19T14:32:59;96785.84;;;9.48;100.00
58064;BME280;43851;55.856;37.186;2022-09-19T14:35:47;96781.38;;;9.53;100.00
58064;BME280;43851;55.856;37.186;2022-09-19T14:47:18;96795.44;;;9.59;100.00
58064;BME280;43851;55.856;37.186;2022-09-19T14:50:15;96803.38;;;9.64;100.00
58064;BME280;43851;55.856;37.186;2022-09-19T14:52:51;96794.63;;;9.58;100.00
58064;BME280;43851;55.856;37.186;2022-09-19T14:55:20;96812.59;;;9.56;100.00
58064;BME280;43851;55.856;37.186;2022-09-19T14:57:49;96807.59;;;9.60;100.00
58064;BME280;43851;55.856;37.186;2022-09-19T15:00:25;96817.91;;;9.62;100.00
58064;BME280;43851;55.856;37.186;2022-09-19T15:02:56;96828.47;;;9.56;100.00
58064;BME280;43851;55.856;37.186;2022-09-19T15:05:31;96817.38;;;9.60;100.00
58064;BME280;43851;55.856;37.186;2022-09-19T15:08:28;96821.06;;;9.58;100.00
58064;BME280;43851;55.856;37.186;2022-09-19T15:11:00;96832.41;;;9.44;100.00
58064;BME280;43851;55.856;37.186;2022-09-19T15:13:27;96837.19;;;9.57;100.00
58064;BME280;43851;55.856;37.186;2022-09-19T15:18:23;96849.63;;;9.56;100.00
58064;BME280;43851;55.856;37.186;2022-09-19T15:20:55;96848.03;;;9.55;100.00
58064;BME280;43851;55.856;37.186;2022-09-19T15:23:23;96856.78;;;9.56;100.00
58064;BME280;43851;55.856;37.186;2022-09-19T15:25:58;96847.81;;;9.62;100.00
58064;BME280;43851;55.856;37.186;2022-09-19T15:28:30;96852.84;;;9.64;100.00
58064;BME280;43851;55.856;37.186;2022-09-19T15:33:38;96856.75;;;9.51;100.00
58064;BME280;43851;55.856;37.186;2022-09-19T15:36:12;96862.63;;;9.63;100.00
58064;BME280;43851;55.856;37.186;2022-09-19T15:38:41;96875.81;;;9.58;100.00
58064;BME280;43851;55.856;37.186;2022-09-19T15:41:08;96854.66;;;9.58;100.00
58064;BME280;43851;55.856;37.186;2022-09-19T15:43:44;96875.03;;;9.57;100.00
58064;BME280;43851;55.856;37.186;2022-09-19T15:48:54;96875.81;;;9.58;100.00
58064;BME280;43851;55.856;37.186;2022-09-19T15:51:35;96899.88;;;9.56;100.00
58064;BME280;43851;55.856;37.186;2022-09-19T15:54:13;96900.66;;;9.52;100.00
58064;BME280;43851;55.856;37.186;2022-09-19T15:56:46;96904.91;;;9.53;100.00
58064;BME280;43851;55.856;37.186;2022-09-19T15:59:18;96911.22;;;9.47;100.00
58064;BME280;43851;55.856;37.186;2022-09-19T16:01:47;96913.34;;;9.50;100.00
58064;BME280;43851;55.856;37.186;2022-09-19T16:04:18;96935.00;;;9.47;100.00
58064;BME280;43851;55.856;37.186;2022-09-19T16:09:37;96951.44;;;9.54;100.00
58064;BME280;43851;55.856;37.186;2022-09-19T16:15:00;96955.88;;;9.43;100.00
58064;BME280;43851;55.856;37.186;2022-09-19T16:23:14;96964.88;;;9.42;100.00
58064;BME280;43851;55.856;37.186;2022-09-19T16:25:59;96974.38;;;9.43;100.00
58064;BME280;43851;55.856;37.186;2022-09-19T16:28:29;96979.97;;;9.47;100.00